O'neill, Nebraska
Current Conditions -  °F | °C
As of 12:35 PM on Thursday 30 Oct 2014 (Local Time) from KONL Reporting Station
Clear Clear  
Wind Chill: 54°   Ceiling: Unl
Heat Index: 54°   Visibility: 10mi
Dew Point: 38°   Wind: 23mph
Humidity: 55%   Direction: 330°NNW
Pressure: 30.21"   Gusts: 31mph
Location:  42.47°N, 98.68°W
Report Text: KONL 301735Z AUTO 33020G27KT 10SM CLR 12/04 A3021 RMK AO2 T01230036
Loading
Personal Weather Stations






























Interactive Weather Map
Tropical Storm Tracking
New forecast layout! Learn more

10-Day Weather Forecast

Advertisements
Track Severe Weather on mobile